Houston, TX (77001)

3:14 PM CDT on September 04, 2015 (GMT -0500)
Port of Houston | | Change Station
CLOSE
Current Station
Personal Weather Station
Location: Houston, TX
Elevation: 30 ft
Nearby Weather Stations

Elev 30 ft 29.72 °N, 95.27 °W | Updated 7 minutes ago

Mostly Cloudy
Mostly Cloudy
91.5 °F
Feels Like 106 °F
N
0.0
Wind Variable Wind from NW
Gusts 8.0 mph

Today
High -- | Low -- °F
--% Chance of Precip.
Yesterday
High -- | Low -- °F
Precip. -- in
6:59 AM 7:39 PM
Waning Gibbous, 56% visible
Pressure 29.94 in
Visibility 10.0 miles
Clouds Scattered Clouds 3000 ft
Scattered Clouds 15000 ft
Scattered Clouds 25000 ft
Heat Index 106 °F
Dew Point 78 °F
Humidity 64%
Rainfall 0.04 in
Snow Depth Not available.
UV 7 out of 12
Pollen 6.30 out of 12
Air Quality Not available.
Flu Activity Not available.
METAR KHOU 041953Z 20006KT 10SM SCT030 SCT150 SCT250 31/23 A2993 RMK AO2 SLP139 CB DSNT S-SW NW-N T03110233
Pressure 29.94 in
Visibility 10.0 miles
Clouds Scattered Clouds 3000 ft
Scattered Clouds 15000 ft
Scattered Clouds 25000 ft
Heat Index 106 °F
Dew Point 78 °F
Humidity 64%
Rainfall 0.04 in
Snow Depth Not available.
UV 7 out of 12
Pollen 6.30 out of 12
Air Quality Not available.
Flu Activity Not available.
METAR KHOU 041953Z 20006KT 10SM SCT030 SCT150 SCT250 31/23 A2993 RMK AO2 SLP139 CB DSNT S-SW NW-N T03110233

10-Day Weather Forecast

×

Almanac

Astronomy

Sep. 04, 2015 Rise Set
Actual Time
Civil Twilight
Nautical Twilight
Astronomical Twilight
Moon
Length of Visible Light
Length of Day
Tomorrow will be .
, % of the Moon is Illuminated

Today's Extremes

State Highs State Lows

Community

WunderPhotos

Upload Photos

1,852,273 photos uploaded!

WunderBlogs® & News

Nearby

Air Quality

  Air Quality AQ Index Pollutant
Not available.

Snow Depth

Station Depth Elevation

Earthquake Activity

City Distance Mag. Time & Date
Minimum magnitude displayed is 2.5.

Coastal Water Temperatures

Place Temperature

Stations

Nearby Weather Stations

Station Location Temp. Windchill Dew Point Humidity Wind Precip. Elev Updated Type